sensor_id;sensor_type;location;lat;lon;timestamp;temperature;humidity
15178;DHT22;7689;53.612;-2.416;2022-12-18T00:02:15;2.30;99.90
15178;DHT22;7689;53.612;-2.416;2022-12-18T00:04:41;2.30;99.90
15178;DHT22;7689;53.612;-2.416;2022-12-18T00:07:07;2.30;99.90
15178;DHT22;7689;53.612;-2.416;2022-12-18T00:09:32;2.40;99.90
15178;DHT22;7689;53.612;-2.416;2022-12-18T00:11:58;2.40;99.90
15178;DHT22;7689;53.612;-2.416;2022-12-18T00:14:23;2.40;99.90
15178;DHT22;7689;53.612;-2.416;2022-12-18T00:16:49;2.30;99.90
15178;DHT22;7689;53.612;-2.416;2022-12-18T00:19:15;2.30;99.90
15178;DHT22;7689;53.612;-2.416;2022-12-18T00:21:42;2.20;99.90
15178;DHT22;7689;53.612;-2.416;2022-12-18T00:24:08;2.30;99.90
15178;DHT22;7689;53.612;-2.416;2022-12-18T00:26:35;2.40;99.90
15178;DHT22;7689;53.612;-2.416;2022-12-18T00:29:12;2.30;99.90
15178;DHT22;7689;53.612;-2.416;2022-12-18T00:31:39;2.10;99.90
15178;DHT22;7689;53.612;-2.416;2022-12-18T00:34:05;2.00;99.90
15178;DHT22;7689;53.612;-2.416;2022-12-18T00:36:33;2.00;99.90
15178;DHT22;7689;53.612;-2.416;2022-12-18T00:39:02;1.90;99.90
15178;DHT22;7689;53.612;-2.416;2022-12-18T00:41:28;1.90;99.90
15178;DHT22;7689;53.612;-2.416;2022-12-18T00:44:14;1.90;99.90
15178;DHT22;7689;53.612;-2.416;2022-12-18T00:46:41;1.90;99.90
15178;DHT22;7689;53.612;-2.416;2022-12-18T00:49:06;1.90;99.90
15178;DHT22;7689;53.612;-2.416;2022-12-18T00:51:32;1.80;99.90
15178;DHT22;7689;53.612;-2.416;2022-12-18T00:53:58;1.90;99.90
15178;DHT22;7689;53.612;-2.416;2022-12-18T00:56:24;1.90;99.90
15178;DHT22;7689;53.612;-2.416;2022-12-18T00:58:50;1.90;99.90
15178;DHT22;7689;53.612;-2.416;2022-12-18T01:01:16;1.90;99.90
15178;DHT22;7689;53.612;-2.416;2022-12-18T01:03:42;1.80;99.90
15178;DHT22;7689;53.612;-2.416;2022-12-18T01:06:09;1.80;99.90
15178;DHT22;7689;53.612;-2.416;2022-12-18T01:08:35;1.70;99.90
15178;DHT22;7689;53.612;-2.416;2022-12-18T01:11:11;1.80;99.90
15178;DHT22;7689;53.612;-2.416;2022-12-18T01:13:37;1.80;99.90
15178;DHT22;7689;53.612;-2.416;2022-12-18T01:16:03;1.70;99.90
15178;DHT22;7689;53.612;-2.416;2022-12-18T01:18:28;1.70;99.90
15178;DHT22;7689;53.612;-2.416;2022-12-18T01:20:54;1.70;99.90
15178;DHT22;7689;53.612;-2.416;2022-12-18T01:23:20;1.70;99.90
15178;DHT22;7689;53.612;-2.416;2022-12-18T01:25:45;1.70;99.90
15178;DHT22;7689;53.612;-2.416;2022-12-18T01:28:11;1.60;99.90
15178;DHT22;7689;53.612;-2.416;2022-12-18T01:30:37;1.50;99.90
15178;DHT22;7689;53.612;-2.416;2022-12-18T01:33:04;1.50;99.90
15178;DHT22;7689;53.612;-2.416;2022-12-18T01:35:31;1.50;99.90
15178;DHT22;7689;53.612;-2.416;2022-12-18T01:37:56;1.60;99.90
15178;DHT22;7689;53.612;-2.416;2022-12-18T01:40:22;1.50;99.90
15178;DHT22;7689;53.612;-2.416;2022-12-18T01:42:52;1.60;99.90
15178;DHT22;7689;53.612;-2.416;2022-12-18T01:47:52;1.60;99.90
15178;DHT22;7689;53.612;-2.416;2022-12-18T01:50:28;1.50;99.90
15178;DHT22;7689;53.612;-2.416;2022-12-18T01:55:39;1.30;99.90
15178;DHT22;7689;53.612;-2.416;2022-12-18T01:58:05;1.30;99.90
15178;DHT22;7689;53.612;-2.416;2022-12-18T02:00:31;1.30;99.90
15178;DHT22;7689;53.612;-2.416;2022-12-18T02:02:57;1.20;99.90
15178;DHT22;7689;53.612;-2.416;2022-12-18T02:09:01;1.30;99.90
15178;DHT22;7689;53.612;-2.416;2022-12-18T02:14:28;1.20;99.90
15178;DHT22;7689;53.612;-2.416;2022-12-18T02:17:03;1.20;99.90
15178;DHT22;7689;53.612;-2.416;2022-12-18T02:22:58;1.10;99.90
15178;DHT22;7689;53.612;-2.416;2022-12-18T02:25:31;1.10;99.90
15178;DHT22;7689;53.612;-2.416;2022-12-18T02:28:01;1.10;99.90
15178;DHT22;7689;53.612;-2.416;2022-12-18T02:30:29;1.00;99.90
15178;DHT22;7689;53.612;-2.416;2022-12-18T02:32:57;1.00;99.90
15178;DHT22;7689;53.612;-2.416;2022-12-18T02:35:27;1.10;99.90
15178;DHT22;7689;53.612;-2.416;2022-12-18T02:37:54;1.00;99.90
15178;DHT22;7689;53.612;-2.416;2022-12-18T02:40:23;1.00;99.90
15178;DHT22;7689;53.612;-2.416;2022-12-18T02:42:50;1.00;99.90
15178;DHT22;7689;53.612;-2.416;2022-12-18T02:45:16;1.00;99.90
15178;DHT22;7689;53.612;-2.416;2022-12-18T02:47:46;1.00;99.90
15178;DHT22;7689;53.612;-2.416;2022-12-18T02:55:45;0.90;99.90
15178;DHT22;7689;53.612;-2.416;2022-12-18T03:01:11;0.90;99.90
15178;DHT22;7689;53.612;-2.416;2022-12-18T03:03:43;0.80;99.90
15178;DHT22;7689;53.612;-2.416;2022-12-18T03:06:23;0.80;99.90
15178;DHT22;7689;53.612;-2.416;2022-12-18T03:08:54;0.80;99.90
15178;DHT22;7689;53.612;-2.416;2022-12-18T03:11:29;0.80;99.90
15178;DHT22;7689;53.612;-2.416;2022-12-18T03:14:15;0.80;99.90
15178;DHT22;7689;53.612;-2.416;2022-12-18T03:16:42;0.70;99.90
15178;DHT22;7689;53.612;-2.416;2022-12-18T03:19:19;0.80;99.90
15178;DHT22;7689;53.612;-2.416;2022-12-18T03:21:51;0.80;99.90
15178;DHT22;7689;53.612;-2.416;2022-12-18T03:24:18;0.70;99.90
15178;DHT22;7689;53.612;-2.416;2022-12-18T03:26:50;0.70;99.90
15178;DHT22;7689;53.612;-2.416;2022-12-18T03:29:23;0.70;99.90
15178;DHT22;7689;53.612;-2.416;2022-12-18T03:31:54;0.80;99.90
15178;DHT22;7689;53.612;-2.416;2022-12-18T03:34:26;0.80;99.90
15178;DHT22;7689;53.612;-2.416;2022-12-18T03:36:52;0.70;99.90
15178;DHT22;7689;53.612;-2.416;2022-12-18T03:39:18;0.70;99.90
15178;DHT22;7689;53.612;-2.416;2022-12-18T03:41:51;0.70;99.90
15178;DHT22;7689;53.612;-2.416;2022-12-18T03:44:55;0.70;99.90
15178;DHT22;7689;53.612;-2.416;2022-12-18T03:52:52;0.80;99.90
15178;DHT22;7689;53.612;-2.416;2022-12-18T03:55:21;0.80;99.90
15178;DHT22;7689;53.612;-2.416;2022-12-18T03:57:48;0.80;99.90
15178;DHT22;7689;53.612;-2.416;2022-12-18T04:00:17;0.90;99.90
15178;DHT22;7689;53.612;-2.416;2022-12-18T04:02:51;0.90;99.90
15178;DHT22;7689;53.612;-2.416;2022-12-18T04:05:19;0.90;99.90
15178;DHT22;7689;53.612;-2.416;2022-12-18T04:07:47;0.90;99.90
15178;DHT22;7689;53.612;-2.416;2022-12-18T04:10:14;0.90;99.90
15178;DHT22;7689;53.612;-2.416;2022-12-18T04:12:41;0.90;99.90
15178;DHT22;7689;53.612;-2.416;2022-12-18T04:15:07;1.00;99.90
15178;DHT22;7689;53.612;-2.416;2022-12-18T04:17:33;1.00;99.90
15178;DHT22;7689;53.612;-2.416;2022-12-18T04:19:59;1.00;99.90
15178;DHT22;7689;53.612;-2.416;2022-12-18T04:22:24;1.00;99.90
15178;DHT22;7689;53.612;-2.416;2022-12-18T04:24:50;1.00;99.90
15178;DHT22;7689;53.612;-2.416;2022-12-18T04:27:16;1.00;99.90
15178;DHT22;7689;53.612;-2.416;2022-12-18T04:29:42;0.90;99.90
15178;DHT22;7689;53.612;-2.416;2022-12-18T04:32:08;0.90;99.90
15178;DHT22;7689;53.612;-2.416;2022-12-18T04:34:34;0.90;99.90
15178;DHT22;7689;53.612;-2.416;2022-12-18T04:36:59;0.90;99.90
15178;DHT22;7689;53.612;-2.416;2022-12-18T04:39:25;0.80;99.90
15178;DHT22;7689;53.612;-2.416;2022-12-18T04:41:51;0.90;99.90
15178;DHT22;7689;53.612;-2.416;2022-12-18T04:44:16;0.80;99.90
15178;DHT22;7689;53.612;-2.416;2022-12-18T04:46:42;0.80;99.90
15178;DHT22;7689;53.612;-2.416;2022-12-18T04:49:08;2.30;99.90
15178;DHT22;7689;53.612;-2.416;2022-12-18T04:51:36;0.70;99.90
15178;DHT22;7689;53.612;-2.416;2022-12-18T04:54:01;0.80;99.90
15178;DHT22;7689;53.612;-2.416;2022-12-18T04:56:27;0.80;99.90
15178;DHT22;7689;53.612;-2.416;2022-12-18T04:58:53;0.70;99.90
15178;DHT22;7689;53.612;-2.416;2022-12-18T05:01:18;0.70;99.90
15178;DHT22;7689;53.612;-2.416;2022-12-18T05:03:44;0.70;99.90
15178;DHT22;7689;53.612;-2.416;2022-12-18T05:06:09;0.70;99.90
15178;DHT22;7689;53.612;-2.416;2022-12-18T05:08:35;0.70;99.90
15178;DHT22;7689;53.612;-2.416;2022-12-18T05:11:07;1.40;99.90
15178;DHT22;7689;53.612;-2.416;2022-12-18T05:13:33;0.70;99.90
15178;DHT22;7689;53.612;-2.416;2022-12-18T05:15:59;0.70;99.90
15178;DHT22;7689;53.612;-2.416;2022-12-18T05:18:26;0.70;99.90
15178;DHT22;7689;53.612;-2.416;2022-12-18T05:20:52;0.60;99.90
15178;DHT22;7689;53.612;-2.416;2022-12-18T05:23:19;0.60;99.90
15178;DHT22;7689;53.612;-2.416;2022-12-18T05:25:59;0.70;99.90
15178;DHT22;7689;53.612;-2.416;2022-12-18T05:28:27;0.70;99.90
15178;DHT22;7689;53.612;-2.416;2022-12-18T05:30:55;0.70;99.90
15178;DHT22;7689;53.612;-2.416;2022-12-18T05:33:22;0.70;99.90
15178;DHT22;7689;53.612;-2.416;2022-12-18T05:35:59;0.60;99.90
15178;DHT22;7689;53.612;-2.416;2022-12-18T05:38:26;0.70;99.90
15178;DHT22;7689;53.612;-2.416;2022-12-18T05:40:53;0.60;99.90
15178;DHT22;7689;53.612;-2.416;2022-12-18T05:43:19;0.60;99.90
15178;DHT22;7689;53.612;-2.416;2022-12-18T05:45:47;0.60;99.90
15178;DHT22;7689;53.612;-2.416;2022-12-18T05:48:12;0.60;99.90
15178;DHT22;7689;53.612;-2.416;2022-12-18T05:50:39;0.60;99.90
15178;DHT22;7689;53.612;-2.416;2022-12-18T05:53:05;0.60;99.90
15178;DHT22;7689;53.612;-2.416;2022-12-18T05:55:39;0.60;99.90
15178;DHT22;7689;53.612;-2.416;2022-12-18T05:58:05;0.60;99.90
15178;DHT22;7689;53.612;-2.416;2022-12-18T06:00:33;0.50;99.90
15178;DHT22;7689;53.612;-2.416;2022-12-18T06:03:00;0.50;99.90
15178;DHT22;7689;53.612;-2.416;2022-12-18T06:05:26;0.50;99.90
15178;DHT22;7689;53.612;-2.416;2022-12-18T06:07:52;0.50;99.90
15178;DHT22;7689;53.612;-2.416;2022-12-18T06:10:18;0.50;99.90
15178;DHT22;7689;53.612;-2.416;2022-12-18T06:12:44;0.50;99.90
15178;DHT22;7689;53.612;-2.416;2022-12-18T06:15:10;0.50;99.90
15178;DHT22;7689;53.612;-2.416;2022-12-18T06:17:36;0.50;99.90
15178;DHT22;7689;53.612;-2.416;2022-12-18T06:20:03;0.50;99.90
15178;DHT22;7689;53.612;-2.416;2022-12-18T06:22:30;0.50;99.90
15178;DHT22;7689;53.612;-2.416;2022-12-18T06:24:57;0.50;99.90
15178;DHT22;7689;53.612;-2.416;2022-12-18T06:27:22;0.50;99.90
15178;DHT22;7689;53.612;-2.416;2022-12-18T06:29:49;0.50;99.90
15178;DHT22;7689;53.612;-2.416;2022-12-18T06:32:14;0.60;99.90
15178;DHT22;7689;53.612;-2.416;2022-12-18T06:34:40;0.60;99.90
15178;DHT22;7689;53.612;-2.416;2022-12-18T06:37:06;0.60;99.90
15178;DHT22;7689;53.612;-2.416;2022-12-18T06:39:32;0.60;99.90
15178;DHT22;7689;53.612;-2.416;2022-12-18T06:41:57;0.60;99.90
15178;DHT22;7689;53.612;-2.416;2022-12-18T06:44:23;0.60;99.90
15178;DHT22;7689;53.612;-2.416;2022-12-18T06:46:48;0.60;99.90
15178;DHT22;7689;53.612;-2.416;2022-12-18T06:49:14;0.60;99.90
15178;DHT22;7689;53.612;-2.416;2022-12-18T06:51:41;0.70;99.90
15178;DHT22;7689;53.612;-2.416;2022-12-18T06:54:07;0.70;99.90
15178;DHT22;7689;53.612;-2.416;2022-12-18T06:56:33;0.70;99.90
15178;DHT22;7689;53.612;-2.416;2022-12-18T06:58:58;0.70;99.90
15178;DHT22;7689;53.612;-2.416;2022-12-18T07:01:24;0.70;99.90
15178;DHT22;7689;53.612;-2.416;2022-12-18T07:03:54;0.70;99.90
15178;DHT22;7689;53.612;-2.416;2022-12-18T07:06:21;0.70;99.90
15178;DHT22;7689;53.612;-2.416;2022-12-18T07:08:49;0.70;99.90
15178;DHT22;7689;53.612;-2.416;2022-12-18T07:11:16;0.70;99.90
15178;DHT22;7689;53.612;-2.416;2022-12-18T07:13:41;0.70;99.90
15178;DHT22;7689;53.612;-2.416;2022-12-18T07:16:15;0.70;99.90
15178;DHT22;7689;53.612;-2.416;2022-12-18T07:18:41;0.60;99.90
15178;DHT22;7689;53.612;-2.416;2022-12-18T07:21:09;0.70;99.90
15178;DHT22;7689;53.612;-2.416;2022-12-18T07:23:36;0.70;99.90
15178;DHT22;7689;53.612;-2.416;2022-12-18T07:26:09;0.70;99.90
15178;DHT22;7689;53.612;-2.416;2022-12-18T07:28:36;0.70;99.90
15178;DHT22;7689;53.612;-2.416;2022-12-18T07:31:07;0.60;99.90
15178;DHT22;7689;53.612;-2.416;2022-12-18T07:33:33;0.70;99.90
15178;DHT22;7689;53.612;-2.416;2022-12-18T07:36:03;0.60;99.90
15178;DHT22;7689;53.612;-2.416;2022-12-18T07:38:30;0.70;99.90
15178;DHT22;7689;53.612;-2.416;2022-12-18T07:41:00;0.70;99.90
15178;DHT22;7689;53.612;-2.416;2022-12-18T07:43:27;0.70;99.90
15178;DHT22;7689;53.612;-2.416;2022-12-18T07:45:52;0.70;99.90
15178;DHT22;7689;53.612;-2.416;2022-12-18T07:48:18;0.80;99.90
15178;DHT22;7689;53.612;-2.416;2022-12-18T07:50:43;0.80;99.90
15178;DHT22;7689;53.612;-2.416;2022-12-18T07:53:09;0.80;99.90
15178;DHT22;7689;53.612;-2.416;2022-12-18T07:55:34;0.80;99.90
15178;DHT22;7689;53.612;-2.416;2022-12-18T07:58:02;0.80;99.90
15178;DHT22;7689;53.612;-2.416;2022-12-18T08:00:28;0.80;99.90
15178;DHT22;7689;53.612;-2.416;2022-12-18T08:02:53;0.80;99.90
15178;DHT22;7689;53.612;-2.416;2022-12-18T08:05:19;0.80;99.90
15178;DHT22;7689;53.612;-2.416;2022-12-18T08:07:46;0.80;99.90
15178;DHT22;7689;53.612;-2.416;2022-12-18T08:10:12;0.80;99.90
15178;DHT22;7689;53.612;-2.416;2022-12-18T08:12:38;0.90;99.90
15178;DHT22;7689;53.612;-2.416;2022-12-18T08:15:04;1.00;99.90
15178;DHT22;7689;53.612;-2.416;2022-12-18T08:17:30;1.00;99.90
15178;DHT22;7689;53.612;-2.416;2022-12-18T08:19:55;0.90;99.90
15178;DHT22;7689;53.612;-2.416;2022-12-18T08:22:21;1.00;99.90
15178;DHT22;7689;53.612;-2.416;2022-12-18T08:24:46;1.00;99.90
15178;DHT22;7689;53.612;-2.416;2022-12-18T08:27:12;1.00;99.90
15178;DHT22;7689;53.612;-2.416;2022-12-18T08:29:38;1.00;99.90
15178;DHT22;7689;53.612;-2.416;2022-12-18T08:32:04;1.00;99.90
15178;DHT22;7689;53.612;-2.416;2022-12-18T08:34:29;1.00;99.90
15178;DHT22;7689;53.612;-2.416;2022-12-18T08:36:55;1.10;99.90
15178;DHT22;7689;53.612;-2.416;2022-12-18T08:39:21;1.00;99.90
15178;DHT22;7689;53.612;-2.416;2022-12-18T08:41:46;1.00;99.90
15178;DHT22;7689;53.612;-2.416;2022-12-18T08:44:32;1.00;99.90
15178;DHT22;7689;53.612;-2.416;2022-12-18T08:47:07;1.00;99.90
15178;DHT22;7689;53.612;-2.416;2022-12-18T08:49:34;1.00;99.90
15178;DHT22;7689;53.612;-2.416;2022-12-18T08:52:00;1.10;99.90
15178;DHT22;7689;53.612;-2.416;2022-12-18T08:54:26;1.10;99.90
15178;DHT22;7689;53.612;-2.416;2022-12-18T08:56:52;1.10;99.90
15178;DHT22;7689;53.612;-2.416;2022-12-18T08:59:18;1.10;99.90
15178;DHT22;7689;53.612;-2.416;2022-12-18T09:01:44;1.10;99.90
15178;DHT22;7689;53.612;-2.416;2022-12-18T09:04:10;1.10;99.90
15178;DHT22;7689;53.612;-2.416;2022-12-18T09:06:36;1.10;99.90
15178;DHT22;7689;53.612;-2.416;2022-12-18T09:09:03;1.20;99.90
15178;DHT22;7689;53.612;-2.416;2022-12-18T09:11:30;1.20;99.90
15178;DHT22;7689;53.612;-2.416;2022-12-18T09:13:57;1.20;99.90
15178;DHT22;7689;53.612;-2.416;2022-12-18T09:16:23;1.20;99.90
15178;DHT22;7689;53.612;-2.416;2022-12-18T09:18:49;1.30;99.90
15178;DHT22;7689;53.612;-2.416;2022-12-18T09:21:17;1.30;99.90
15178;DHT22;7689;53.612;-2.416;2022-12-18T09:23:43;1.40;99.90
15178;DHT22;7689;53.612;-2.416;2022-12-18T09:26:09;1.40;99.90
15178;DHT22;7689;53.612;-2.416;2022-12-18T09:28:35;1.30;99.90
15178;DHT22;7689;53.612;-2.416;2022-12-18T09:31:06;1.40;99.90
15178;DHT22;7689;53.612;-2.416;2022-12-18T09:33:33;1.40;99.90
15178;DHT22;7689;53.612;-2.416;2022-12-18T09:36:01;1.40;99.90
15178;DHT22;7689;53.612;-2.416;2022-12-18T09:38:27;1.40;99.90
15178;DHT22;7689;53.612;-2.416;2022-12-18T09:41:00;1.50;99.90
15178;DHT22;7689;53.612;-2.416;2022-12-18T09:46:11;1.40;99.90
15178;DHT22;7689;53.612;-2.416;2022-12-18T09:48:44;1.40;99.90
15178;DHT22;7689;53.612;-2.416;2022-12-18T09:51:22;1.40;99.90
15178;DHT22;7689;53.612;-2.416;2022-12-18T09:53:56;1.40;99.90
15178;DHT22;7689;53.612;-2.416;2022-12-18T09:56:35;1.40;99.90
15178;DHT22;7689;53.612;-2.416;2022-12-18T09:59:04;-0.70;99.90
15178;DHT22;7689;53.612;-2.416;2022-12-18T10:01:31;1.30;99.90
15178;DHT22;7689;53.612;-2.416;2022-12-18T10:03:58;1.30;99.90
15178;DHT22;7689;53.612;-2.416;2022-12-18T10:06:35;1.30;99.90
15178;DHT22;7689;53.612;-2.416;2022-12-18T10:09:15;1.40;99.90
15178;DHT22;7689;53.612;-2.416;2022-12-18T10:11:57;1.40;99.90
15178;DHT22;7689;53.612;-2.416;2022-12-18T10:14:29;1.40;99.90
15178;DHT22;7689;53.612;-2.416;2022-12-18T10:17:22;1.40;99.90
15178;DHT22;7689;53.612;-2.416;2022-12-18T10:19:59;1.40;99.90
15178;DHT22;7689;53.612;-2.416;2022-12-18T10:25:01;1.50;99.90
15178;DHT22;7689;53.612;-2.416;2022-12-18T10:27:30;1.50;99.90
15178;DHT22;7689;53.612;-2.416;2022-12-18T10:29:57;1.50;99.90
15178;DHT22;7689;53.612;-2.416;2022-12-18T10:32:29;1.50;99.90
15178;DHT22;7689;53.612;-2.416;2022-12-18T10:34:57;1.60;99.90
15178;DHT22;7689;53.612;-2.416;2022-12-18T10:37:25;1.60;99.90
15178;DHT22;7689;53.612;-2.416;2022-12-18T10:40:12;1.60;99.90
15178;DHT22;7689;53.612;-2.416;2022-12-18T10:42:39;0.90;99.90
15178;DHT22;7689;53.612;-2.416;2022-12-18T10:45:11;1.60;99.90
15178;DHT22;7689;53.612;-2.416;2022-12-18T10:47:46;1.60;99.90
15178;DHT22;7689;53.612;-2.416;2022-12-18T10:52:57;1.60;99.90
15178;DHT22;7689;53.612;-2.416;2022-12-18T10:55:27;1.60;99.90
15178;DHT22;7689;53.612;-2.416;2022-12-18T10:58:20;1.60;99.90
15178;DHT22;7689;53.612;-2.416;2022-12-18T11:01:14;1.60;99.90
15178;DHT22;7689;53.612;-2.416;2022-12-18T11:04:00;1.60;99.90
15178;DHT22;7689;53.612;-2.416;2022-12-18T11:06:27;1.60;99.90
15178;DHT22;7689;53.612;-2.416;2022-12-18T11:09:19;1.60;99.90
15178;DHT22;7689;53.612;-2.416;2022-12-18T11:12:15;1.70;99.90
15178;DHT22;7689;53.612;-2.416;2022-12-18T11:14:52;1.70;99.90
15178;DHT22;7689;53.612;-2.416;2022-12-18T11:17:31;1.70;99.90
15178;DHT22;7689;53.612;-2.416;2022-12-18T11:20:04;1.70;99.90
15178;DHT22;7689;53.612;-2.416;2022-12-18T11:22:34;1.70;99.90
15178;DHT22;7689;53.612;-2.416;2022-12-18T11:25:05;1.80;99.90
15178;DHT22;7689;53.612;-2.416;2022-12-18T11:27:32;1.70;99.90
15178;DHT22;7689;53.612;-2.416;2022-12-18T11:30:10;1.10;99.90
15178;DHT22;7689;53.612;-2.416;2022-12-18T11:32:42;1.80;99.90
15178;DHT22;7689;53.612;-2.416;2022-12-18T11:38:10;1.80;99.90
15178;DHT22;7689;53.612;-2.416;2022-12-18T11:40:40;1.80;99.90
15178;DHT22;7689;53.612;-2.416;2022-12-18T11:43:14;1.80;99.90
15178;DHT22;7689;53.612;-2.416;2022-12-18T11:45:49;1.80;99.90
15178;DHT22;7689;53.612;-2.416;2022-12-18T11:48:22;1.70;99.90
15178;DHT22;7689;53.612;-2.416;2022-12-18T11:50:57;1.80;99.90
15178;DHT22;7689;53.612;-2.416;2022-12-18T11:53:25;1.80;99.90
15178;DHT22;7689;53.612;-2.416;2022-12-18T11:56:43;1.80;99.90
15178;DHT22;7689;53.612;-2.416;2022-12-18T12:02:19;1.80;99.90
15178;DHT22;7689;53.612;-2.416;2022-12-18T12:08:12;1.80;99.90
15178;DHT22;7689;53.612;-2.416;2022-12-18T12:21:46;1.90;99.90
15178;DHT22;7689;53.612;-2.416;2022-12-18T12:27:25;1.90;99.90
15178;DHT22;7689;53.612;-2.416;2022-12-18T12:40:34;1.90;99.90
15178;DHT22;7689;53.612;-2.416;2022-12-18T12:43:21;1.90;99.90
15178;DHT22;7689;53.612;-2.416;2022-12-18T12:46:11;1.90;99.90
15178;DHT22;7689;53.612;-2.416;2022-12-18T12:48:44;1.90;99.90
15178;DHT22;7689;53.612;-2.416;2022-12-18T12:51:18;1.90;99.90
15178;DHT22;7689;53.612;-2.416;2022-12-18T12:53:45;2.00;99.90
15178;DHT22;7689;53.612;-2.416;2022-12-18T12:56:14;2.00;99.90
15178;DHT22;7689;53.612;-2.416;2022-12-18T13:04:30;1.90;99.90
15178;DHT22;7689;53.612;-2.416;2022-12-18T13:07:11;2.00;99.90
15178;DHT22;7689;53.612;-2.416;2022-12-18T13:15:40;2.00;99.90
15178;DHT22;7689;53.612;-2.416;2022-12-18T13:20:46;2.00;99.90
15178;DHT22;7689;53.612;-2.416;2022-12-18T13:34:18;2.00;99.90
15178;DHT22;7689;53.612;-2.416;2022-12-18T13:36:45;2.00;99.90
15178;DHT22;7689;53.612;-2.416;2022-12-18T13:41:43;2.00;99.90
15178;DHT22;7689;53.612;-2.416;2022-12-18T13:46:51;2.10;99.90
15178;DHT22;7689;53.612;-2.416;2022-12-18T13:49:25;2.10;99.90
15178;DHT22;7689;53.612;-2.416;2022-12-18T13:51:53;2.10;99.90
15178;DHT22;7689;53.612;-2.416;2022-12-18T13:56:59;2.10;99.90
15178;DHT22;7689;53.612;-2.416;2022-12-18T13:59:36;2.10;99.90
15178;DHT22;7689;53.612;-2.416;2022-12-18T14:02:17;2.10;99.90
15178;DHT22;7689;53.612;-2.416;2022-12-18T14:04:45;2.10;99.90
15178;DHT22;7689;53.612;-2.416;2022-12-18T14:07:21;2.10;99.90
15178;DHT22;7689;53.612;-2.416;2022-12-18T14:10:01;2.10;99.90
15178;DHT22;7689;53.612;-2.416;2022-12-18T14:12:32;2.10;99.90
15178;DHT22;7689;53.612;-2.416;2022-12-18T14:15:39;2.10;99.90
15178;DHT22;7689;53.612;-2.416;2022-12-18T14:20:56;2.00;99.90
15178;DHT22;7689;53.612;-2.416;2022-12-18T14:26:01;2.10;99.90
15178;DHT22;7689;53.612;-2.416;2022-12-18T14:28:26;2.10;99.90
15178;DHT22;7689;53.612;-2.416;2022-12-18T14:30:52;2.10;99.90
15178;DHT22;7689;53.612;-2.416;2022-12-18T14:33:25;2.10;99.90
15178;DHT22;7689;53.612;-2.416;2022-12-18T14:36:03;2.10;99.90
15178;DHT22;7689;53.612;-2.416;2022-12-18T14:38:37;2.10;99.90
15178;DHT22;7689;53.612;-2.416;2022-12-18T14:41:05;2.10;99.90
15178;DHT22;7689;53.612;-2.416;2022-12-18T14:43:34;2.20;99.90
15178;DHT22;7689;53.612;-2.416;2022-12-18T14:46:00;2.10;99.90
15178;DHT22;7689;53.612;-2.416;2022-12-18T14:48:41;2.20;99.90
15178;DHT22;7689;53.612;-2.416;2022-12-18T14:51:48;2.20;99.90
15178;DHT22;7689;53.612;-2.416;2022-12-18T14:54:16;2.20;99.90
15178;DHT22;7689;53.612;-2.416;2022-12-18T14:56:51;2.20;99.90
15178;DHT22;7689;53.612;-2.416;2022-12-18T14:59:27;2.20;99.90
15178;DHT22;7689;53.612;-2.416;2022-12-18T15:02:04;2.30;99.90
15178;DHT22;7689;53.612;-2.416;2022-12-18T15:04:36;0.90;99.90
15178;DHT22;7689;53.612;-2.416;2022-12-18T15:07:23;2.30;99.90
15178;DHT22;7689;53.612;-2.416;2022-12-18T15:12:42;2.30;99.90
15178;DHT22;7689;53.612;-2.416;2022-12-18T15:23:12;2.50;99.90
15178;DHT22;7689;53.612;-2.416;2022-12-18T15:25:38;2.50;99.90
15178;DHT22;7689;53.612;-2.416;2022-12-18T15:28:23;2.50;99.90
15178;DHT22;7689;53.612;-2.416;2022-12-18T15:30:58;2.50;99.90
15178;DHT22;7689;53.612;-2.416;2022-12-18T15:33:27;2.60;99.90
15178;DHT22;7689;53.612;-2.416;2022-12-18T15:36:08;2.60;99.90
15178;DHT22;7689;53.612;-2.416;2022-12-18T15:38:34;2.70;99.90
15178;DHT22;7689;53.612;-2.416;2022-12-18T15:41:00;2.70;99.90
15178;DHT22;7689;53.612;-2.416;2022-12-18T15:43:29;2.70;99.90
15178;DHT22;7689;53.612;-2.416;2022-12-18T15:46:13;2.70;99.90
15178;DHT22;7689;53.612;-2.416;2022-12-18T15:48:47;2.60;99.90
15178;DHT22;7689;53.612;-2.416;2022-12-18T15:51:53;2.70;99.90
15178;DHT22;7689;53.612;-2.416;2022-12-18T15:54:19;2.80;99.90
15178;DHT22;7689;53.612;-2.416;2022-12-18T15:57:09;2.80;99.90
15178;DHT22;7689;53.612;-2.416;2022-12-18T15:59:52;2.80;99.90
15178;DHT22;7689;53.612;-2.416;2022-12-18T16:02:19;2.80;99.90
15178;DHT22;7689;53.612;-2.416;2022-12-18T16:04:45;2.90;99.90
15178;DHT22;7689;53.612;-2.416;2022-12-18T16:07:12;2.90;99.90
15178;DHT22;7689;53.612;-2.416;2022-12-18T16:09:37;3.00;99.90
15178;DHT22;7689;53.612;-2.416;2022-12-18T16:12:04;3.00;99.90
15178;DHT22;7689;53.612;-2.416;2022-12-18T16:14:31;3.00;99.90
15178;DHT22;7689;53.612;-2.416;2022-12-18T16:16:59;3.10;99.90
15178;DHT22;7689;53.612;-2.416;2022-12-18T16:19:26;3.10;99.90
15178;DHT22;7689;53.612;-2.416;2022-12-18T16:21:54;3.10;99.90
15178;DHT22;7689;53.612;-2.416;2022-12-18T16:24:28;3.10;99.90
15178;DHT22;7689;53.612;-2.416;2022-12-18T16:26:58;3.10;99.90
15178;DHT22;7689;53.612;-2.416;2022-12-18T16:29:25;3.10;99.90
15178;DHT22;7689;53.612;-2.416;2022-12-18T16:31:56;3.20;99.90
15178;DHT22;7689;53.612;-2.416;2022-12-18T16:34:24;3.10;99.90
15178;DHT22;7689;53.612;-2.416;2022-12-18T16:37:00;3.30;99.90
15178;DHT22;7689;53.612;-2.416;2022-12-18T16:39:27;3.30;99.90
15178;DHT22;7689;53.612;-2.416;2022-12-18T16:41:54;3.30;99.90
15178;DHT22;7689;53.612;-2.416;2022-12-18T16:44:19;3.30;99.90
15178;DHT22;7689;53.612;-2.416;2022-12-18T16:46:46;3.40;99.90
15178;DHT22;7689;53.612;-2.416;2022-12-18T16:49:13;3.40;99.90
15178;DHT22;7689;53.612;-2.416;2022-12-18T16:51:38;4.80;99.90
15178;DHT22;7689;53.612;-2.416;2022-12-18T16:54:05;3.40;99.90
15178;DHT22;7689;53.612;-2.416;2022-12-18T16:56:31;3.40;99.90
15178;DHT22;7689;53.612;-2.416;2022-12-18T16:58:58;3.40;99.90
15178;DHT22;7689;53.612;-2.416;2022-12-18T17:01:26;3.40;99.90
15178;DHT22;7689;53.612;-2.416;2022-12-18T17:03:56;3.30;99.90
15178;DHT22;7689;53.612;-2.416;2022-12-18T17:06:22;3.30;99.90
15178;DHT22;7689;53.612;-2.416;2022-12-18T17:09:01;3.40;99.90
15178;DHT22;7689;53.612;-2.416;2022-12-18T17:11:29;3.40;99.90
15178;DHT22;7689;53.612;-2.416;2022-12-18T17:13:55;3.50;99.90
15178;DHT22;7689;53.612;-2.416;2022-12-18T17:16:21;3.50;99.90
15178;DHT22;7689;53.612;-2.416;2022-12-18T17:18:47;3.50;99.90
15178;DHT22;7689;53.612;-2.416;2022-12-18T17:21:14;3.60;99.90
15178;DHT22;7689;53.612;-2.416;2022-12-18T17:23:40;3.70;99.90
15178;DHT22;7689;53.612;-2.416;2022-12-18T17:26:06;3.70;99.90
15178;DHT22;7689;53.612;-2.416;2022-12-18T17:28:34;3.80;99.90
15178;DHT22;7689;53.612;-2.416;2022-12-18T17:31:00;3.80;99.90
15178;DHT22;7689;53.612;-2.416;2022-12-18T17:33:26;3.80;99.90
15178;DHT22;7689;53.612;-2.416;2022-12-18T17:35:52;3.80;99.90
15178;DHT22;7689;53.612;-2.416;2022-12-18T17:38:18;3.80;99.90
15178;DHT22;7689;53.612;-2.416;2022-12-18T17:40:44;3.80;99.90
15178;DHT22;7689;53.612;-2.416;2022-12-18T17:43:10;3.90;99.90
15178;DHT22;7689;53.612;-2.416;2022-12-18T17:45:37;3.90;99.90
15178;DHT22;7689;53.612;-2.416;2022-12-18T17:48:07;4.00;99.90
15178;DHT22;7689;53.612;-2.416;2022-12-18T17:50:34;4.00;99.90
15178;DHT22;7689;53.612;-2.416;2022-12-18T17:53:00;4.00;99.90
15178;DHT22;7689;53.612;-2.416;2022-12-18T17:55:26;4.00;99.90
15178;DHT22;7689;53.612;-2.416;2022-12-18T17:57:52;4.10;99.90
15178;DHT22;7689;53.612;-2.416;2022-12-18T18:00:18;4.00;99.90
15178;DHT22;7689;53.612;-2.416;2022-12-18T18:02:45;4.10;99.90